Brushy, Iowa
Current Conditions -  °F | °C
As of 5:35 PM on Wednesday 22 Oct 2014 (Local Time) from KEBS Reporting Station
Broken Clouds Broken Clouds  
Wind Chill: 63°   Ceiling: 9000
Heat Index: 63°   Visibility: 10mi
Dew Point: 46°   Wind: 16mph
Humidity: 55%   Direction: 140°SE
Pressure: 30.06"   Gusts: NA
Location:  42.4323°N, 94.0232°W
Report Text: KEBS 222235Z AUTO 14014KT 10SM SCT060 SCT075 BKN090 17/08 A3006 RMK AO2
Loading
Personal Weather Stations






























Interactive Weather Map
Tropical Storm Tracking
New forecast layout! Learn more

10-Day Weather Forecast

Advertisements
Track Severe Weather on mobile